sensor_id;sensor_type;location;lat;lon;timestamp;P1;durP1;ratioP1;P2;durP2;ratioP2
54271;SDS011;40184;53.362;5.216;2022-09-30T00:01:35;5.68;;;1.00;;
54271;SDS011;40184;53.362;5.216;2022-09-30T00:04:03;5.72;;;1.70;;
54271;SDS011;40184;53.362;5.216;2022-09-30T00:06:30;8.80;;;1.60;;
54271;SDS011;40184;53.362;5.216;2022-09-30T00:08:57;3.08;;;1.30;;
54271;SDS011;40184;53.362;5.216;2022-09-30T00:11:27;2.65;;;1.67;;
54271;SDS011;40184;53.362;5.216;2022-09-30T00:13:55;7.50;;;1.40;;
54271;SDS011;40184;53.362;5.216;2022-09-30T00:16:22;8.00;;;1.40;;
54271;SDS011;40184;53.362;5.216;2022-09-30T00:18:49;1.92;;;1.30;;
54271;SDS011;40184;53.362;5.216;2022-09-30T00:21:15;7.07;;;1.42;;
54271;SDS011;40184;53.362;5.216;2022-09-30T00:23:43;5.95;;;2.40;;
54271;SDS011;40184;53.362;5.216;2022-09-30T00:26:16;5.03;;;1.40;;
54271;SDS011;40184;53.362;5.216;2022-09-30T00:28:43;11.05;;;1.98;;
54271;SDS011;40184;53.362;5.216;2022-09-30T00:31:11;5.40;;;2.45;;
54271;SDS011;40184;53.362;5.216;2022-09-30T00:33:38;6.40;;;1.75;;
54271;SDS011;40184;53.362;5.216;2022-09-30T00:36:04;7.00;;;1.33;;
54271;SDS011;40184;53.362;5.216;2022-09-30T00:38:30;7.65;;;1.83;;
54271;SDS011;40184;53.362;5.216;2022-09-30T00:40:56;4.85;;;1.38;;
54271;SDS011;40184;53.362;5.216;2022-09-30T00:46:26;4.85;;;1.50;;
54271;SDS011;40184;53.362;5.216;2022-09-30T00:49:01;5.55;;;1.63;;
54271;SDS011;40184;53.362;5.216;2022-09-30T00:51:54;3.15;;;1.63;;
54271;SDS011;40184;53.362;5.216;2022-09-30T00:54:22;4.03;;;1.70;;
54271;SDS011;40184;53.362;5.216;2022-09-30T00:56:53;6.20;;;1.40;;
54271;SDS011;40184;53.362;5.216;2022-09-30T00:59:23;7.32;;;1.38;;
54271;SDS011;40184;53.362;5.216;2022-09-30T01:01:55;4.40;;;1.30;;
54271;SDS011;40184;53.362;5.216;2022-09-30T01:04:22;6.13;;;1.80;;
54271;SDS011;40184;53.362;5.216;2022-09-30T01:06:49;6.60;;;1.10;;
54271;SDS011;40184;53.362;5.216;2022-09-30T01:09:16;2.28;;;1.30;;
54271;SDS011;40184;53.362;5.216;2022-09-30T01:11:42;4.10;;;1.40;;
54271;SDS011;40184;53.362;5.216;2022-09-30T01:14:12;7.13;;;1.75;;
54271;SDS011;40184;53.362;5.216;2022-09-30T01:16:47;4.95;;;1.20;;
54271;SDS011;40184;53.362;5.216;2022-09-30T01:25:25;3.67;;;1.10;;
54271;SDS011;40184;53.362;5.216;2022-09-30T01:28:07;4.68;;;1.60;;
54271;SDS011;40184;53.362;5.216;2022-09-30T01:33:20;2.17;;;1.55;;
54271;SDS011;40184;53.362;5.216;2022-09-30T01:38:45;3.28;;;1.40;;
54271;SDS011;40184;53.362;5.216;2022-09-30T01:44:01;6.43;;;1.50;;
54271;SDS011;40184;53.362;5.216;2022-09-30T01:46:40;29.40;;;2.50;;
54271;SDS011;40184;53.362;5.216;2022-09-30T01:52:13;3.15;;;1.20;;
54271;SDS011;40184;53.362;5.216;2022-09-30T01:54:46;3.17;;;1.45;;
54271;SDS011;40184;53.362;5.216;2022-09-30T01:57:16;2.75;;;1.63;;
54271;SDS011;40184;53.362;5.216;2022-09-30T01:59:53;6.40;;;1.55;;
54271;SDS011;40184;53.362;5.216;2022-09-30T02:02:28;8.02;;;1.38;;
54271;SDS011;40184;53.362;5.216;2022-09-30T02:05:06;14.98;;;4.05;;
54271;SDS011;40184;53.362;5.216;2022-09-30T02:07:38;5.03;;;1.50;;
54271;SDS011;40184;53.362;5.216;2022-09-30T02:13:16;4.65;;;1.83;;
54271;SDS011;40184;53.362;5.216;2022-09-30T02:15:48;12.20;;;3.33;;
54271;SDS011;40184;53.362;5.216;2022-09-30T02:18:20;8.70;;;2.47;;
54271;SDS011;40184;53.362;5.216;2022-09-30T02:20:59;5.35;;;1.73;;
54271;SDS011;40184;53.362;5.216;2022-09-30T02:23:28;5.03;;;1.77;;
54271;SDS011;40184;53.362;5.216;2022-09-30T02:26:08;9.90;;;2.30;;
54271;SDS011;40184;53.362;5.216;2022-09-30T02:28:40;2.60;;;1.33;;
54271;SDS011;40184;53.362;5.216;2022-09-30T02:31:10;8.32;;;1.70;;
54271;SDS011;40184;53.362;5.216;2022-09-30T02:33:52;5.15;;;1.90;;
54271;SDS011;40184;53.362;5.216;2022-09-30T02:36:29;3.13;;;1.80;;
54271;SDS011;40184;53.362;5.216;2022-09-30T02:39:01;5.83;;;2.00;;
54271;SDS011;40184;53.362;5.216;2022-09-30T02:41:38;5.18;;;1.67;;
54271;SDS011;40184;53.362;5.216;2022-09-30T02:44:13;4.85;;;1.48;;
54271;SDS011;40184;53.362;5.216;2022-09-30T02:47:02;4.65;;;1.63;;
54271;SDS011;40184;53.362;5.216;2022-09-30T02:49:45;9.55;;;1.73;;
54271;SDS011;40184;53.362;5.216;2022-09-30T02:54:52;4.15;;;1.58;;
54271;SDS011;40184;53.362;5.216;2022-09-30T03:00:12;2.92;;;1.45;;
54271;SDS011;40184;53.362;5.216;2022-09-30T03:02:39;1.45;;;1.35;;
54271;SDS011;40184;53.362;5.216;2022-09-30T03:05:05;4.38;;;1.67;;
54271;SDS011;40184;53.362;5.216;2022-09-30T03:07:32;4.22;;;1.35;;
54271;SDS011;40184;53.362;5.216;2022-09-30T03:09:59;9.73;;;1.73;;
54271;SDS011;40184;53.362;5.216;2022-09-30T03:13:13;2.97;;;1.50;;
54271;SDS011;40184;53.362;5.216;2022-09-30T03:15:26;6.35;;;1.75;;
54271;SDS011;40184;53.362;5.216;2022-09-30T03:18:10;5.80;;;1.73;;
54271;SDS011;40184;53.362;5.216;2022-09-30T03:23:46;4.78;;;1.80;;
54271;SDS011;40184;53.362;5.216;2022-09-30T03:26:49;3.65;;;2.15;;
54271;SDS011;40184;53.362;5.216;2022-09-30T03:29:42;3.70;;;1.75;;
54271;SDS011;40184;53.362;5.216;2022-09-30T03:32:26;6.03;;;1.58;;
54271;SDS011;40184;53.362;5.216;2022-09-30T03:35:11;3.90;;;1.45;;
54271;SDS011;40184;53.362;5.216;2022-09-30T03:37:49;6.78;;;1.60;;
54271;SDS011;40184;53.362;5.216;2022-09-30T03:43:46;5.03;;;1.65;;
54271;SDS011;40184;53.362;5.216;2022-09-30T03:48:54;5.25;;;1.60;;
54271;SDS011;40184;53.362;5.216;2022-09-30T03:51:23;4.85;;;2.80;;
54271;SDS011;40184;53.362;5.216;2022-09-30T03:53:49;5.93;;;2.33;;
54271;SDS011;40184;53.362;5.216;2022-09-30T03:56:24;5.03;;;1.70;;
54271;SDS011;40184;53.362;5.216;2022-09-30T03:58:52;3.75;;;1.75;;
54271;SDS011;40184;53.362;5.216;2022-09-30T04:01:18;7.85;;;2.30;;
54271;SDS011;40184;53.362;5.216;2022-09-30T04:03:46;6.45;;;1.25;;
54271;SDS011;40184;53.362;5.216;2022-09-30T04:06:13;3.03;;;1.70;;
54271;SDS011;40184;53.362;5.216;2022-09-30T04:08:38;4.25;;;1.55;;
54271;SDS011;40184;53.362;5.216;2022-09-30T04:11:04;3.60;;;1.52;;
54271;SDS011;40184;53.362;5.216;2022-09-30T04:13:30;4.53;;;1.60;;
54271;SDS011;40184;53.362;5.216;2022-09-30T04:15:56;7.82;;;1.80;;
54271;SDS011;40184;53.362;5.216;2022-09-30T04:18:22;3.85;;;2.17;;
54271;SDS011;40184;53.362;5.216;2022-09-30T04:20:48;8.02;;;2.00;;
54271;SDS011;40184;53.362;5.216;2022-09-30T04:23:14;7.60;;;1.45;;
54271;SDS011;40184;53.362;5.216;2022-09-30T04:25:40;11.07;;;2.05;;
54271;SDS011;40184;53.362;5.216;2022-09-30T04:28:05;4.43;;;1.27;;
54271;SDS011;40184;53.362;5.216;2022-09-30T04:30:31;7.40;;;1.63;;
54271;SDS011;40184;53.362;5.216;2022-09-30T04:32:56;6.25;;;1.52;;
54271;SDS011;40184;53.362;5.216;2022-09-30T04:35:22;5.60;;;1.65;;
54271;SDS011;40184;53.362;5.216;2022-09-30T04:37:48;6.40;;;1.90;;
54271;SDS011;40184;53.362;5.216;2022-09-30T04:40:14;6.93;;;1.73;;
54271;SDS011;40184;53.362;5.216;2022-09-30T04:42:41;5.50;;;1.73;;
54271;SDS011;40184;53.362;5.216;2022-09-30T04:45:08;4.50;;;1.80;;
54271;SDS011;40184;53.362;5.216;2022-09-30T04:47:35;4.30;;;1.73;;
54271;SDS011;40184;53.362;5.216;2022-09-30T04:50:00;6.43;;;1.85;;
54271;SDS011;40184;53.362;5.216;2022-09-30T04:52:26;9.50;;;2.28;;
54271;SDS011;40184;53.362;5.216;2022-09-30T04:54:52;5.40;;;1.50;;
54271;SDS011;40184;53.362;5.216;2022-09-30T04:57:18;10.73;;;2.92;;
54271;SDS011;40184;53.362;5.216;2022-09-30T04:59:44;8.05;;;1.90;;
54271;SDS011;40184;53.362;5.216;2022-09-30T05:02:09;4.60;;;2.33;;
54271;SDS011;40184;53.362;5.216;2022-09-30T05:04:37;7.22;;;2.42;;
54271;SDS011;40184;53.362;5.216;2022-09-30T05:07:03;7.60;;;1.45;;
54271;SDS011;40184;53.362;5.216;2022-09-30T05:09:33;3.97;;;1.50;;
54271;SDS011;40184;53.362;5.216;2022-09-30T05:11:59;6.88;;;1.90;;
54271;SDS011;40184;53.362;5.216;2022-09-30T05:14:27;8.13;;;2.25;;
54271;SDS011;40184;53.362;5.216;2022-09-30T05:16:53;5.25;;;1.88;;
54271;SDS011;40184;53.362;5.216;2022-09-30T05:19:19;17.70;;;10.82;;
54271;SDS011;40184;53.362;5.216;2022-09-30T05:21:45;11.13;;;5.40;;
54271;SDS011;40184;53.362;5.216;2022-09-30T05:24:11;6.03;;;3.28;;
54271;SDS011;40184;53.362;5.216;2022-09-30T05:26:36;7.97;;;2.33;;
54271;SDS011;40184;53.362;5.216;2022-09-30T05:29:04;5.95;;;2.60;;
54271;SDS011;40184;53.362;5.216;2022-09-30T05:31:30;4.95;;;2.25;;
54271;SDS011;40184;53.362;5.216;2022-09-30T05:33:55;8.38;;;2.15;;
54271;SDS011;40184;53.362;5.216;2022-09-30T05:36:21;7.45;;;2.13;;
54271;SDS011;40184;53.362;5.216;2022-09-30T05:38:49;5.72;;;2.15;;
54271;SDS011;40184;53.362;5.216;2022-09-30T05:41:16;8.90;;;2.35;;
54271;SDS011;40184;53.362;5.216;2022-09-30T05:43:44;7.97;;;2.63;;
54271;SDS011;40184;53.362;5.216;2022-09-30T05:46:11;6.63;;;3.08;;
54271;SDS011;40184;53.362;5.216;2022-09-30T05:48:37;8.40;;;2.35;;
54271;SDS011;40184;53.362;5.216;2022-09-30T05:51:03;5.15;;;3.08;;
54271;SDS011;40184;53.362;5.216;2022-09-30T05:53:30;15.32;;;3.22;;
54271;SDS011;40184;53.362;5.216;2022-09-30T05:55:56;5.35;;;2.75;;
54271;SDS011;40184;53.362;5.216;2022-09-30T05:58:21;5.82;;;2.47;;
54271;SDS011;40184;53.362;5.216;2022-09-30T06:00:48;7.05;;;2.65;;
54271;SDS011;40184;53.362;5.216;2022-09-30T06:03:15;4.53;;;2.10;;
54271;SDS011;40184;53.362;5.216;2022-09-30T06:05:41;7.10;;;2.55;;
54271;SDS011;40184;53.362;5.216;2022-09-30T06:08:09;5.75;;;2.05;;
54271;SDS011;40184;53.362;5.216;2022-09-30T06:10:35;4.55;;;2.47;;
54271;SDS011;40184;53.362;5.216;2022-09-30T06:13:05;4.45;;;1.83;;
54271;SDS011;40184;53.362;5.216;2022-09-30T06:15:31;7.95;;;2.67;;
54271;SDS011;40184;53.362;5.216;2022-09-30T06:17:57;12.00;;;2.40;;
54271;SDS011;40184;53.362;5.216;2022-09-30T06:20:22;7.28;;;1.98;;
54271;SDS011;40184;53.362;5.216;2022-09-30T06:22:49;8.82;;;2.40;;
54271;SDS011;40184;53.362;5.216;2022-09-30T06:25:14;8.32;;;2.10;;
54271;SDS011;40184;53.362;5.216;2022-09-30T06:27:42;3.90;;;1.98;;
54271;SDS011;40184;53.362;5.216;2022-09-30T06:30:10;6.90;;;2.17;;
54271;SDS011;40184;53.362;5.216;2022-09-30T06:32:36;4.47;;;1.30;;
54271;SDS011;40184;53.362;5.216;2022-09-30T06:35:02;8.32;;;2.70;;
54271;SDS011;40184;53.362;5.216;2022-09-30T06:37:28;11.13;;;2.30;;
54271;SDS011;40184;53.362;5.216;2022-09-30T06:39:54;9.45;;;1.65;;
54271;SDS011;40184;53.362;5.216;2022-09-30T06:42:20;9.52;;;2.00;;
54271;SDS011;40184;53.362;5.216;2022-09-30T06:44:48;11.60;;;2.45;;
54271;SDS011;40184;53.362;5.216;2022-09-30T06:47:14;6.90;;;1.58;;
54271;SDS011;40184;53.362;5.216;2022-09-30T06:49:40;6.57;;;1.60;;
54271;SDS011;40184;53.362;5.216;2022-09-30T06:52:07;13.20;;;2.05;;
54271;SDS011;40184;53.362;5.216;2022-09-30T06:54:33;3.70;;;1.92;;
54271;SDS011;40184;53.362;5.216;2022-09-30T06:56:59;12.02;;;2.42;;
54271;SDS011;40184;53.362;5.216;2022-09-30T06:59:26;4.93;;;2.35;;
54271;SDS011;40184;53.362;5.216;2022-09-30T07:01:51;17.25;;;2.40;;
54271;SDS011;40184;53.362;5.216;2022-09-30T07:04:17;8.80;;;2.40;;
54271;SDS011;40184;53.362;5.216;2022-09-30T07:06:43;6.60;;;2.35;;
54271;SDS011;40184;53.362;5.216;2022-09-30T07:09:09;8.73;;;2.03;;
54271;SDS011;40184;53.362;5.216;2022-09-30T07:11:35;4.22;;;2.05;;
54271;SDS011;40184;53.362;5.216;2022-09-30T07:14:02;1.63;;;1.23;;
54271;SDS011;40184;53.362;5.216;2022-09-30T07:16:31;2.88;;;1.48;;
54271;SDS011;40184;53.362;5.216;2022-09-30T07:18:59;2.08;;;0.98;;
54271;SDS011;40184;53.362;5.216;2022-09-30T07:21:26;1.27;;;1.17;;
54271;SDS011;40184;53.362;5.216;2022-09-30T07:23:52;2.60;;;1.10;;
54271;SDS011;40184;53.362;5.216;2022-09-30T07:26:20;3.50;;;1.60;;
54271;SDS011;40184;53.362;5.216;2022-09-30T07:28:47;5.68;;;1.40;;
54271;SDS011;40184;53.362;5.216;2022-09-30T07:31:14;2.72;;;1.08;;
54271;SDS011;40184;53.362;5.216;2022-09-30T07:33:43;5.40;;;1.90;;
54271;SDS011;40184;53.362;5.216;2022-09-30T07:36:09;8.15;;;1.40;;
54271;SDS011;40184;53.362;5.216;2022-09-30T07:38:36;11.68;;;1.73;;
54271;SDS011;40184;53.362;5.216;2022-09-30T07:41:08;3.00;;;1.00;;
54271;SDS011;40184;53.362;5.216;2022-09-30T07:43:39;2.22;;;1.00;;
54271;SDS011;40184;53.362;5.216;2022-09-30T07:48:36;2.03;;;0.80;;
54271;SDS011;40184;53.362;5.216;2022-09-30T07:51:20;2.25;;;1.00;;
54271;SDS011;40184;53.362;5.216;2022-09-30T07:53:53;2.97;;;0.88;;
54271;SDS011;40184;53.362;5.216;2022-09-30T07:56:20;3.80;;;1.08;;
54271;SDS011;40184;53.362;5.216;2022-09-30T07:58:46;2.72;;;0.70;;
54271;SDS011;40184;53.362;5.216;2022-09-30T08:01:12;3.03;;;1.50;;
54271;SDS011;40184;53.362;5.216;2022-09-30T08:03:40;8.20;;;2.30;;
54271;SDS011;40184;53.362;5.216;2022-09-30T08:06:12;4.65;;;2.33;;
54271;SDS011;40184;53.362;5.216;2022-09-30T08:08:40;1.77;;;0.50;;
54271;SDS011;40184;53.362;5.216;2022-09-30T08:11:08;3.50;;;1.20;;
54271;SDS011;40184;53.362;5.216;2022-09-30T08:13:34;1.95;;;0.50;;
54271;SDS011;40184;53.362;5.216;2022-09-30T08:16:00;3.13;;;0.80;;
54271;SDS011;40184;53.362;5.216;2022-09-30T08:18:26;1.65;;;0.50;;
54271;SDS011;40184;53.362;5.216;2022-09-30T08:20:52;4.25;;;0.85;;
54271;SDS011;40184;53.362;5.216;2022-09-30T08:23:18;4.03;;;0.98;;
54271;SDS011;40184;53.362;5.216;2022-09-30T08:25:44;3.17;;;0.90;;
54271;SDS011;40184;53.362;5.216;2022-09-30T08:28:09;3.88;;;1.15;;
54271;SDS011;40184;53.362;5.216;2022-09-30T08:30:36;3.13;;;1.42;;
54271;SDS011;40184;53.362;5.216;2022-09-30T08:33:02;2.78;;;0.80;;
54271;SDS011;40184;53.362;5.216;2022-09-30T08:35:28;3.15;;;0.80;;
54271;SDS011;40184;53.362;5.216;2022-09-30T08:37:54;2.25;;;0.63;;
54271;SDS011;40184;53.362;5.216;2022-09-30T08:40:21;2.30;;;0.55;;
54271;SDS011;40184;53.362;5.216;2022-09-30T08:42:56;1.13;;;0.60;;
54271;SDS011;40184;53.362;5.216;2022-09-30T08:53:53;2.75;;;0.43;;
54271;SDS011;40184;53.362;5.216;2022-09-30T08:56:25;2.20;;;0.63;;
54271;SDS011;40184;53.362;5.216;2022-09-30T08:58:54;0.98;;;0.40;;
54271;SDS011;40184;53.362;5.216;2022-09-30T09:03:53;8.07;;;1.65;;
54271;SDS011;40184;53.362;5.216;2022-09-30T09:08:57;2.50;;;0.60;;
54271;SDS011;40184;53.362;5.216;2022-09-30T09:11:51;1.65;;;0.60;;
54271;SDS011;40184;53.362;5.216;2022-09-30T09:20:13;2.92;;;1.58;;
54271;SDS011;40184;53.362;5.216;2022-09-30T09:22:41;9.32;;;1.10;;
54271;SDS011;40184;53.362;5.216;2022-09-30T09:25:12;7.53;;;1.30;;
54271;SDS011;40184;53.362;5.216;2022-09-30T09:30:18;3.92;;;1.13;;
54271;SDS011;40184;53.362;5.216;2022-09-30T09:32:48;2.00;;;0.80;;
54271;SDS011;40184;53.362;5.216;2022-09-30T09:40:38;6.30;;;4.32;;
54271;SDS011;40184;53.362;5.216;2022-09-30T09:46:10;4.80;;;1.20;;
54271;SDS011;40184;53.362;5.216;2022-09-30T09:48:45;5.03;;;1.08;;
54271;SDS011;40184;53.362;5.216;2022-09-30T09:51:21;2.35;;;0.98;;
54271;SDS011;40184;53.362;5.216;2022-09-30T09:53:53;3.67;;;1.10;;
54271;SDS011;40184;53.362;5.216;2022-09-30T09:56:25;1.70;;;1.02;;
54271;SDS011;40184;53.362;5.216;2022-09-30T10:01:42;4.53;;;2.10;;
54271;SDS011;40184;53.362;5.216;2022-09-30T10:04:10;3.78;;;2.38;;
54271;SDS011;40184;53.362;5.216;2022-09-30T10:07:01;2.67;;;1.42;;
54271;SDS011;40184;53.362;5.216;2022-09-30T10:09:42;4.78;;;1.27;;
54271;SDS011;40184;53.362;5.216;2022-09-30T10:17:31;2.28;;;1.25;;
54271;SDS011;40184;53.362;5.216;2022-09-30T10:22:32;5.13;;;1.27;;
54271;SDS011;40184;53.362;5.216;2022-09-30T10:25:09;1.58;;;0.80;;
54271;SDS011;40184;53.362;5.216;2022-09-30T10:27:45;2.95;;;0.88;;
54271;SDS011;40184;53.362;5.216;2022-09-30T10:30:11;1.35;;;0.80;;
54271;SDS011;40184;53.362;5.216;2022-09-30T10:32:37;2.13;;;1.10;;
54271;SDS011;40184;53.362;5.216;2022-09-30T10:35:04;2.92;;;1.33;;
54271;SDS011;40184;53.362;5.216;2022-09-30T10:37:40;2.53;;;1.30;;
54271;SDS011;40184;53.362;5.216;2022-09-30T10:40:18;3.60;;;1.30;;
54271;SDS011;40184;53.362;5.216;2022-09-30T10:42:46;2.80;;;1.13;;
54271;SDS011;40184;53.362;5.216;2022-09-30T10:45:20;3.00;;;1.35;;
54271;SDS011;40184;53.362;5.216;2022-09-30T10:48:05;6.65;;;1.60;;
54271;SDS011;40184;53.362;5.216;2022-09-30T10:50:48;2.38;;;1.67;;
54271;SDS011;40184;53.362;5.216;2022-09-30T10:53:37;3.05;;;1.80;;
54271;SDS011;40184;53.362;5.216;2022-09-30T10:56:06;2.70;;;1.88;;
54271;SDS011;40184;53.362;5.216;2022-09-30T10:58:44;1.90;;;1.63;;
54271;SDS011;40184;53.362;5.216;2022-09-30T11:06:39;2.33;;;1.70;;
54271;SDS011;40184;53.362;5.216;2022-09-30T11:15:23;2.70;;;2.08;;
54271;SDS011;40184;53.362;5.216;2022-09-30T11:20:39;5.45;;;1.77;;
54271;SDS011;40184;53.362;5.216;2022-09-30T11:25:59;4.13;;;2.13;;
54271;SDS011;40184;53.362;5.216;2022-09-30T11:31:06;3.85;;;2.13;;
54271;SDS011;40184;53.362;5.216;2022-09-30T11:33:49;3.35;;;1.83;;
54271;SDS011;40184;53.362;5.216;2022-09-30T11:36:30;3.13;;;1.60;;
54271;SDS011;40184;53.362;5.216;2022-09-30T11:41:57;4.80;;;1.33;;
54271;SDS011;40184;53.362;5.216;2022-09-30T11:44:33;1.40;;;1.30;;
54271;SDS011;40184;53.362;5.216;2022-09-30T11:58:17;1.98;;;0.98;;
54271;SDS011;40184;53.362;5.216;2022-09-30T12:00:48;13.35;;;1.60;;
54271;SDS011;40184;53.362;5.216;2022-09-30T12:03:21;2.58;;;0.88;;
54271;SDS011;40184;53.362;5.216;2022-09-30T12:06:01;1.15;;;0.40;;
54271;SDS011;40184;53.362;5.216;2022-09-30T12:08:33;1.63;;;0.70;;
54271;SDS011;40184;53.362;5.216;2022-09-30T12:11:08;1.80;;;0.50;;
54271;SDS011;40184;53.362;5.216;2022-09-30T12:13:56;3.83;;;0.40;;
54271;SDS011;40184;53.362;5.216;2022-09-30T12:16:27;2.03;;;0.70;;
54271;SDS011;40184;53.362;5.216;2022-09-30T12:18:56;0.60;;;0.50;;
54271;SDS011;40184;53.362;5.216;2022-09-30T12:21:35;5.75;;;1.52;;
54271;SDS011;40184;53.362;5.216;2022-09-30T12:24:08;2.15;;;1.10;;
54271;SDS011;40184;53.362;5.216;2022-09-30T12:26:59;2.97;;;1.15;;
54271;SDS011;40184;53.362;5.216;2022-09-30T12:29:31;3.78;;;0.70;;
54271;SDS011;40184;53.362;5.216;2022-09-30T12:48:58;2.90;;;0.45;;
54271;SDS011;40184;53.362;5.216;2022-09-30T12:51:32;2.40;;;0.50;;
54271;SDS011;40184;53.362;5.216;2022-09-30T12:54:05;2.85;;;0.60;;
54271;SDS011;40184;53.362;5.216;2022-09-30T12:56:40;2.15;;;0.80;;
54271;SDS011;40184;53.362;5.216;2022-09-30T12:59:08;1.17;;;0.65;;
54271;SDS011;40184;53.362;5.216;2022-09-30T13:01:35;4.57;;;0.88;;
54271;SDS011;40184;53.362;5.216;2022-09-30T13:09:21;4.10;;;1.33;;
54271;SDS011;40184;53.362;5.216;2022-09-30T13:12:14;10.55;;;2.53;;
54271;SDS011;40184;53.362;5.216;2022-09-30T13:14:41;3.33;;;1.20;;
54271;SDS011;40184;53.362;5.216;2022-09-30T13:19:36;3.95;;;1.00;;
54271;SDS011;40184;53.362;5.216;2022-09-30T13:32:41;2.90;;;0.80;;
54271;SDS011;40184;53.362;5.216;2022-09-30T13:43:43;9.45;;;1.88;;
54271;SDS011;40184;53.362;5.216;2022-09-30T13:48:41;16.40;;;2.30;;
54271;SDS011;40184;53.362;5.216;2022-09-30T13:51:13;6.20;;;1.25;;
54271;SDS011;40184;53.362;5.216;2022-09-30T13:54:04;6.55;;;1.30;;
54271;SDS011;40184;53.362;5.216;2022-09-30T13:56:35;7.88;;;2.38;;
54271;SDS011;40184;53.362;5.216;2022-09-30T13:59:25;4.93;;;1.10;;
54271;SDS011;40184;53.362;5.216;2022-09-30T14:16:17;2.38;;;1.13;;
54271;SDS011;40184;53.362;5.216;2022-09-30T14:21:51;6.22;;;1.83;;
54271;SDS011;40184;53.362;5.216;2022-09-30T14:24:21;5.07;;;1.60;;
54271;SDS011;40184;53.362;5.216;2022-09-30T14:27:02;4.43;;;2.13;;
54271;SDS011;40184;53.362;5.216;2022-09-30T14:29:58;6.57;;;1.85;;
54271;SDS011;40184;53.362;5.216;2022-09-30T14:35:33;3.50;;;1.20;;
54271;SDS011;40184;53.362;5.216;2022-09-30T14:38:00;8.15;;;1.90;;
54271;SDS011;40184;53.362;5.216;2022-09-30T14:40:30;10.38;;;1.80;;
54271;SDS011;40184;53.362;5.216;2022-09-30T14:42:58;7.10;;;1.80;;
54271;SDS011;40184;53.362;5.216;2022-09-30T14:45:28;9.90;;;2.25;;
54271;SDS011;40184;53.362;5.216;2022-09-30T14:48:00;7.10;;;2.10;;
54271;SDS011;40184;53.362;5.216;2022-09-30T14:50:51;3.88;;;1.55;;
54271;SDS011;40184;53.362;5.216;2022-09-30T14:53:27;5.60;;;2.63;;
54271;SDS011;40184;53.362;5.216;2022-09-30T14:55:57;6.25;;;2.67;;
54271;SDS011;40184;53.362;5.216;2022-09-30T14:58:28;8.65;;;2.20;;
54271;SDS011;40184;53.362;5.216;2022-09-30T15:01:15;10.75;;;2.65;;
54271;SDS011;40184;53.362;5.216;2022-09-30T15:03:42;7.43;;;2.17;;
54271;SDS011;40184;53.362;5.216;2022-09-30T15:06:17;10.50;;;2.35;;
54271;SDS011;40184;53.362;5.216;2022-09-30T15:08:45;6.53;;;2.15;;
54271;SDS011;40184;53.362;5.216;2022-09-30T15:11:19;15.05;;;2.95;;
54271;SDS011;40184;53.362;5.216;2022-09-30T15:13:46;13.50;;;4.53;;
54271;SDS011;40184;53.362;5.216;2022-09-30T15:16:22;13.20;;;7.30;;
54271;SDS011;40184;53.362;5.216;2022-09-30T15:18:49;10.18;;;4.28;;
54271;SDS011;40184;53.362;5.216;2022-09-30T15:21:15;17.98;;;5.53;;
54271;SDS011;40184;53.362;5.216;2022-09-30T15:23:42;11.32;;;6.15;;
54271;SDS011;40184;53.362;5.216;2022-09-30T15:26:12;12.80;;;4.20;;
54271;SDS011;40184;53.362;5.216;2022-09-30T15:28:38;14.18;;;4.45;;
54271;SDS011;40184;53.362;5.216;2022-09-30T15:31:04;8.48;;;4.18;;
54271;SDS011;40184;53.362;5.216;2022-09-30T15:33:32;12.98;;;5.57;;
54271;SDS011;40184;53.362;5.216;2022-09-30T15:36:32;11.02;;;3.92;;
54271;SDS011;40184;53.362;5.216;2022-09-30T15:38:51;10.15;;;2.30;;
54271;SDS011;40184;53.362;5.216;2022-09-30T15:41:17;7.03;;;2.10;;
54271;SDS011;40184;53.362;5.216;2022-09-30T15:46:24;9.90;;;2.45;;
54271;SDS011;40184;53.362;5.216;2022-09-30T15:49:09;8.95;;;3.42;;
54271;SDS011;40184;53.362;5.216;2022-09-30T15:54:44;9.07;;;2.47;;
54271;SDS011;40184;53.362;5.216;2022-09-30T16:00:05;5.13;;;1.92;;
54271;SDS011;40184;53.362;5.216;2022-09-30T16:02:32;7.78;;;2.67;;
54271;SDS011;40184;53.362;5.216;2022-09-30T16:04:59;10.77;;;3.08;;
54271;SDS011;40184;53.362;5.216;2022-09-30T16:07:26;10.30;;;3.13;;
54271;SDS011;40184;53.362;5.216;2022-09-30T16:09:54;10.07;;;2.80;;
54271;SDS011;40184;53.362;5.216;2022-09-30T16:12:25;11.75;;;3.42;;
54271;SDS011;40184;53.362;5.216;2022-09-30T16:15:10;12.00;;;3.80;;
54271;SDS011;40184;53.362;5.216;2022-09-30T16:17:43;10.23;;;3.22;;
54271;SDS011;40184;53.362;5.216;2022-09-30T16:27:39;14.02;;;3.63;;
54271;SDS011;40184;53.362;5.216;2022-09-30T16:30:05;12.48;;;3.47;;
54271;SDS011;40184;53.362;5.216;2022-09-30T16:32:34;13.10;;;3.95;;
54271;SDS011;40184;53.362;5.216;2022-09-30T16:35:03;11.80;;;3.28;;
54271;SDS011;40184;53.362;5.216;2022-09-30T16:37:29;12.55;;;4.55;;
54271;SDS011;40184;53.362;5.216;2022-09-30T16:39:57;14.57;;;4.40;;
54271;SDS011;40184;53.362;5.216;2022-09-30T16:42:32;13.20;;;4.78;;
54271;SDS011;40184;53.362;5.216;2022-09-30T16:44:58;12.23;;;4.47;;
54271;SDS011;40184;53.362;5.216;2022-09-30T16:47:25;13.07;;;4.72;;
54271;SDS011;40184;53.362;5.216;2022-09-30T16:49:50;14.38;;;5.50;;
54271;SDS011;40184;53.362;5.216;2022-09-30T16:52:16;14.00;;;4.85;;
54271;SDS011;40184;53.362;5.216;2022-09-30T16:54:42;11.15;;;5.07;;
54271;SDS011;40184;53.362;5.216;2022-09-30T16:57:08;19.15;;;5.00;;
54271;SDS011;40184;53.362;5.216;2022-09-30T16:59:37;14.27;;;4.18;;
54271;SDS011;40184;53.362;5.216;2022-09-30T17:02:02;16.30;;;6.07;;
54271;SDS011;40184;53.362;5.216;2022-09-30T17:04:29;15.95;;;4.40;;
54271;SDS011;40184;53.362;5.216;2022-09-30T17:06:57;11.45;;;4.75;;
54271;SDS011;40184;53.362;5.216;2022-09-30T17:09:23;13.25;;;4.78;;
54271;SDS011;40184;53.362;5.216;2022-09-30T17:11:49;13.25;;;5.25;;
54271;SDS011;40184;53.362;5.216;2022-09-30T17:14:17;14.23;;;4.97;;
54271;SDS011;40184;53.362;5.216;2022-09-30T17:16:43;12.85;;;5.97;;
54271;SDS011;40184;53.362;5.216;2022-09-30T17:19:10;25.42;;;10.63;;
54271;SDS011;40184;53.362;5.216;2022-09-30T17:21:37;19.95;;;8.95;;
54271;SDS011;40184;53.362;5.216;2022-09-30T17:24:02;16.35;;;5.32;;
54271;SDS011;40184;53.362;5.216;2022-09-30T17:26:29;14.88;;;6.10;;
54271;SDS011;40184;53.362;5.216;2022-09-30T17:28:54;16.38;;;6.15;;
54271;SDS011;40184;53.362;5.216;2022-09-30T17:31:20;12.63;;;4.60;;
54271;SDS011;40184;53.362;5.216;2022-09-30T17:33:46;9.32;;;4.25;;
54271;SDS011;40184;53.362;5.216;2022-09-30T17:36:11;6.82;;;4.03;;
54271;SDS011;40184;53.362;5.216;2022-09-30T17:38:37;13.70;;;3.53;;
54271;SDS011;40184;53.362;5.216;2022-09-30T17:41:04;9.90;;;3.60;;
54271;SDS011;40184;53.362;5.216;2022-09-30T17:43:49;11.85;;;3.05;;
54271;SDS011;40184;53.362;5.216;2022-09-30T17:46:16;6.97;;;2.72;;
54271;SDS011;40184;53.362;5.216;2022-09-30T17:48:45;11.93;;;2.75;;
54271;SDS011;40184;53.362;5.216;2022-09-30T17:51:11;5.78;;;2.38;;
54271;SDS011;40184;53.362;5.216;2022-09-30T17:53:40;4.38;;;2.28;;
54271;SDS011;40184;53.362;5.216;2022-09-30T17:56:10;3.53;;;2.00;;
54271;SDS011;40184;53.362;5.216;2022-09-30T17:58:41;9.73;;;2.58;;
54271;SDS011;40184;53.362;5.216;2022-09-30T18:01:07;10.88;;;3.78;;
54271;SDS011;40184;53.362;5.216;2022-09-30T18:03:34;9.38;;;3.17;;
54271;SDS011;40184;53.362;5.216;2022-09-30T18:06:00;6.05;;;2.75;;
54271;SDS011;40184;53.362;5.216;2022-09-30T18:08:27;8.35;;;2.70;;
54271;SDS011;40184;53.362;5.216;2022-09-30T18:10:53;4.80;;;3.03;;
54271;SDS011;40184;53.362;5.216;2022-09-30T18:13:21;12.70;;;4.68;;
54271;SDS011;40184;53.362;5.216;2022-09-30T18:15:48;5.93;;;3.50;;
54271;SDS011;40184;53.362;5.216;2022-09-30T18:18:13;4.75;;;3.75;;
54271;SDS011;40184;53.362;5.216;2022-09-30T18:20:43;9.65;;;3.97;;
54271;SDS011;40184;53.362;5.216;2022-09-30T18:23:13;7.32;;;4.53;;